Time;durP1;ratioP1;P1;durP2;ratioP2;P2;SDS_P1;SDS_P2;PMS_P1;PMS_P2;Temp;Humidity;BMP_temperature;BMP_pressure;BME280_temperature;BME280_humidity;BME280_pressure;Samples;Min_cycle;Max_cycle;Signal;HPM_P1;HPM_P2
2021/12/22 00:01:36;;;;;;;26.23;13.37;;;1.50;99.90;;;;;;5054729;28;20184;-65
2021/12/22 00:04:03;;;;;;;21.77;12.67;;;1.50;99.90;;;;;;5054163;28;20630;-64
2021/12/22 00:06:32;;;;;;;19.97;12.57;;;1.50;99.90;;;;;;5053705;28;20243;-65
2021/12/22 00:08:58;;;;;;;27.47;13.10;;;1.50;99.90;;;;;;5053750;28;20503;-65
2021/12/22 00:11:25;;;;;;;23.97;12.33;;;1.40;99.90;;;;;;5053687;28;20149;-65
2021/12/22 00:13:51;;;;;;;24.17;12.77;;;1.40;99.90;;;;;;5053921;28;20184;-66
2021/12/22 00:16:16;;;;;;;31.70;14.07;;;1.50;99.90;;;;;;5053723;28;20231;-64
2021/12/22 00:18:43;;;;;;;27.73;12.77;;;1.40;99.90;;;;;;5053753;28;20192;-66
2021/12/22 00:21:09;;;;;;;27.53;12.67;;;1.30;99.90;;;;;;5053565;28;20175;-64
2021/12/22 00:23:35;;;;;;;23.57;12.37;;;1.50;99.90;;;;;;5053487;28;20163;-65
2021/12/22 00:26:01;;;;;;;21.40;12.33;;;1.60;99.90;;;;;;5052603;28;20180;-66
2021/12/22 00:28:26;;;;;;;28.03;12.50;;;1.60;99.90;;;;;;5053474;28;20221;-66
2021/12/22 00:30:52;;;;;;;21.63;11.80;;;1.60;99.90;;;;;;5053709;28;20171;-65
2021/12/22 00:33:19;;;;;;;23.90;11.97;;;1.50;99.90;;;;;;5052991;28;20217;-66
2021/12/22 00:35:45;;;;;;;29.07;12.20;;;1.80;99.90;;;;;;5052752;28;20640;-65
2021/12/22 00:38:31;;;;;;;24.17;12.20;;;1.70;99.90;;;;;;5053395;28;20310;-64
2021/12/22 00:40:56;;;;;;;22.27;11.80;;;1.50;99.90;;;;;;5052874;28;20184;-66
2021/12/22 00:43:22;;;;;;;21.23;12.00;;;1.50;99.90;;;;;;5053250;28;20192;-65
2021/12/22 00:45:55;;;;;;;26.17;12.83;;;1.60;99.90;;;;;;5053383;28;20250;-65
2021/12/22 00:48:21;;;;;;;21.80;13.07;;;1.60;99.90;;;;;;5053355;28;20165;-66
2021/12/22 00:50:47;;;;;;;23.30;12.23;;;1.60;99.90;;;;;;5052036;28;20493;-65
2021/12/22 00:53:13;;;;;;;23.60;12.27;;;1.70;99.90;;;;;;5056680;28;20160;-65
2021/12/22 00:55:39;;;;;;;23.63;12.43;;;1.80;99.90;;;;;;5053368;28;20537;-67
2021/12/22 00:58:05;;;;;;;22.63;12.07;;;1.80;99.90;;;;;;5053289;28;20210;-65
2021/12/22 01:00:31;;;;;;;22.97;12.50;;;1.80;99.90;;;;;;5053134;28;20161;-65
2021/12/22 01:02:57;;;;;;;24.73;12.60;;;1.70;99.90;;;;;;5053198;28;20175;-67
2021/12/22 01:05:23;;;;;;;19.83;11.70;;;1.80;99.90;;;;;;5052585;28;20164;-65
2021/12/22 01:07:49;;;;;;;20.77;11.00;;;1.70;99.90;;;;;;5051900;28;20526;-65
2021/12/22 01:10:18;;;;;;;23.10;11.27;;;1.70;99.90;;;;;;5052996;28;20167;-64
2021/12/22 01:12:43;;;;;;;25.60;11.60;;;1.70;99.90;;;;;;5053133;28;20167;-65
2021/12/22 01:15:12;;;;;;;23.73;11.53;;;1.80;99.90;;;;;;5053058;28;20196;-64
2021/12/22 01:17:42;;;;;;;23.67;10.03;;;1.70;99.90;;;;;;5053073;28;20318;-65
2021/12/22 01:20:20;;;;;;;22.33;9.87;;;1.60;99.90;;;;;;5052982;28;20153;-66
2021/12/22 01:22:48;;;;;;;23.20;10.63;;;1.50;99.90;;;;;;5052867;28;20168;-65
2021/12/22 01:25:18;;;;;;;21.83;10.67;;;1.60;99.90;;;;;;5052392;28;20168;-64
2021/12/22 01:27:44;;;;;;;18.67;10.20;;;1.50;99.90;;;;;;5053025;28;20166;-65
2021/12/22 01:30:21;;;;;;;19.50;11.20;;;1.50;99.90;;;;;;5053519;28;20604;-63
2021/12/22 01:32:49;;;;;;;22.67;10.50;;;1.70;99.90;;;;;;5053122;28;20183;-64
2021/12/22 01:35:17;;;;;;;18.20;9.60;;;1.60;99.90;;;;;;5053058;28;20259;-65
2021/12/22 01:37:43;;;;;;;20.57;11.03;;;1.60;99.90;;;;;;5052857;28;20156;-64
2021/12/22 01:40:10;;;;;;;22.33;10.90;;;1.70;99.90;;;;;;5052447;28;20160;-65
2021/12/22 01:42:38;;;;;;;18.57;10.03;;;1.70;99.90;;;;;;5052993;28;20195;-63
2021/12/22 01:45:36;;;;;;;21.40;10.90;;;1.70;99.90;;;;;;5054098;28;20168;-64
2021/12/22 01:50:50;;;;;;;17.37;9.03;;;1.70;99.90;;;;;;5055888;28;20167;-64
2021/12/22 01:53:21;;;;;;;19.40;9.67;;;1.80;99.90;;;;;;5056294;28;20241;-64
2021/12/22 01:59:08;;;;;;;20.33;9.80;;;1.90;99.90;;;;;;5055854;28;20200;-65
2021/12/22 02:01:34;;;;;;;19.40;9.50;;;1.80;99.90;;;;;;5055867;28;20564;-65
2021/12/22 02:04:03;;;;;;;20.60;10.17;;;1.70;99.90;;;;;;5056028;28;20171;-64
2021/12/22 02:06:28;;;;;;;15.93;9.60;;;1.70;99.90;;;;;;5056698;28;20257;-66
2021/12/22 02:08:55;;;;;;;19.03;9.77;;;1.70;99.90;;;;;;5056536;28;20608;-64
2021/12/22 02:11:22;;;;;;;19.50;9.30;;;1.70;99.90;;;;;;5056194;28;20177;-65
2021/12/22 02:13:55;;;;;;;14.60;9.07;;;1.60;99.90;;;;;;5056354;28;20482;-64
2021/12/22 02:16:26;;;;;;;18.17;9.00;;;1.60;99.90;;;;;;5056667;28;20200;-64
2021/12/22 02:18:53;;;;;;;17.87;9.40;;;1.60;99.90;;;;;;5061066;28;20532;-64
2021/12/22 02:21:21;;;;;;;17.53;10.40;;;1.70;99.90;;;;;;5057588;28;20180;-65
2021/12/22 02:23:47;;;;;;;17.97;10.37;;;1.60;99.90;;;;;;5056705;28;20254;-66
2021/12/22 02:26:21;;;;;;;22.70;11.47;;;1.60;99.90;;;;;;5058136;28;20277;-65
2021/12/22 02:28:56;;;;;;;28.50;12.40;;;1.50;99.90;;;;;;5059624;28;20310;-64
2021/12/22 02:31:21;;;;;;;22.47;12.93;;;1.60;99.90;;;;;;5059149;28;20159;-64
2021/12/22 02:33:49;;;;;;;21.57;12.23;;;1.70;99.90;;;;;;5059100;28;20224;-66
2021/12/22 02:38:47;;;;;;;30.00;13.60;;;1.80;99.90;;;;;;5056548;28;20253;-65
2021/12/22 02:41:16;;;;;;;22.03;12.47;;;1.70;99.90;;;;;;5054422;28;20180;-64
2021/12/22 02:43:52;;;;;;;25.13;13.80;;;1.60;99.90;;;;;;5055018;28;20715;-65
2021/12/22 02:46:20;;;;;;;25.63;12.43;;;1.70;99.90;;;;;;5055618;28;20258;-65
2021/12/22 02:48:47;;;;;;;24.77;12.93;;;1.70;99.90;;;;;;5055366;28;20510;-65
2021/12/22 02:51:13;;;;;;;21.97;12.67;;;1.70;99.90;;;;;;5056119;28;20170;-65
2021/12/22 02:53:44;;;;;;;20.47;11.90;;;1.70;99.90;;;;;;5054153;28;20176;-64
2021/12/22 02:56:26;;;;;;;21.43;11.57;;;1.60;99.90;;;;;;5055115;28;20619;-65
2021/12/22 03:01:39;;;;;;;20.67;10.10;;;1.60;99.90;;;;;;5055640;28;20588;-64
2021/12/22 03:04:11;;;;;;;18.30;10.90;;;1.60;99.90;;;;;;5055246;28;20611;-65
2021/12/22 03:06:46;;;;;;;21.53;11.27;;;1.70;99.90;;;;;;5055000;28;20176;-65
2021/12/22 03:09:19;;;;;;;20.80;10.77;;;1.60;99.90;;;;;;5055348;28;20270;-65
2021/12/22 03:11:45;;;;;;;19.67;11.20;;;1.60;99.90;;;;;;5054943;28;20164;-65
2021/12/22 03:14:13;;;;;;;20.07;11.27;;;1.60;99.90;;;;;;5054302;28;20204;-65
2021/12/22 03:16:42;;;;;;;20.33;10.80;;;1.60;99.90;;;;;;5055161;28;20264;-65
2021/12/22 03:19:10;;;;;;;22.07;11.07;;;1.60;99.90;;;;;;5054509;28;20628;-66
2021/12/22 03:21:36;;;;;;;17.30;10.03;;;1.70;99.90;;;;;;5053250;28;20176;-65
2021/12/22 03:24:02;;;;;;;25.07;9.73;;;1.70;99.90;;;;;;5053622;28;20257;-65
2021/12/22 03:26:29;;;;;;;21.40;10.57;;;1.60;99.90;;;;;;5054661;28;20251;-65
2021/12/22 03:28:55;;;;;;;17.10;9.87;;;1.70;99.90;;;;;;5055048;28;20263;-64
2021/12/22 03:31:20;;;;;;;18.80;9.67;;;1.60;99.90;;;;;;5054568;28;20702;-65
2021/12/22 03:33:46;;;;;;;22.10;10.40;;;1.50;99.90;;;;;;5054699;28;20581;-65
2021/12/22 03:36:12;;;;;;;18.27;9.87;;;1.60;99.90;;;;;;5055084;28;20644;-65
2021/12/22 03:38:38;;;;;;;19.47;11.57;;;1.70;99.90;;;;;;5055001;28;20508;-65
2021/12/22 03:41:05;;;;;;;20.10;10.23;;;1.70;99.90;;;;;;5055153;28;20156;-65
2021/12/22 03:43:32;;;;;;;21.60;9.87;;;1.60;99.90;;;;;;5055691;28;20168;-65
2021/12/22 03:45:58;;;;;;;18.57;10.13;;;1.60;99.90;;;;;;5058405;28;20628;-64
2021/12/22 03:48:25;;;;;;;22.77;10.53;;;1.50;99.90;;;;;;5054951;28;20175;-65
2021/12/22 03:50:52;;;;;;;18.27;10.50;;;1.50;99.90;;;;;;5054461;28;20191;-65
2021/12/22 03:53:18;;;;;;;24.83;10.50;;;1.50;99.90;;;;;;5054585;28;20164;-64
2021/12/22 03:55:44;;;;;;;23.83;11.27;;;1.60;99.90;;;;;;5055668;28;20325;-65
2021/12/22 03:58:10;;;;;;;23.27;10.60;;;1.40;99.90;;;;;;5055459;28;20173;-65
2021/12/22 04:00:38;;;;;;;20.10;10.47;;;1.40;99.90;;;;;;5053377;28;20616;-64
2021/12/22 04:03:04;;;;;;;22.97;11.20;;;1.50;99.90;;;;;;5054641;28;20164;-65
2021/12/22 04:05:30;;;;;;;19.93;10.60;;;1.40;99.90;;;;;;5054555;28;20310;-65
2021/12/22 04:07:57;;;;;;;18.97;9.60;;;1.30;99.90;;;;;;5054341;28;20203;-65
2021/12/22 04:10:25;;;;;;;21.73;11.70;;;1.40;99.90;;;;;;5054753;28;20544;-65
2021/12/22 04:12:53;;;;;;;20.80;10.50;;;1.40;99.90;;;;;;5054857;28;20161;-64
2021/12/22 04:15:20;;;;;;;19.23;11.10;;;1.40;99.90;;;;;;5055003;28;20290;-64
2021/12/22 04:17:46;;;;;;;21.77;11.63;;;1.40;99.90;;;;;;5054101;28;20169;-65
2021/12/22 04:20:12;;;;;;;20.50;11.13;;;1.40;99.90;;;;;;5054280;28;20183;-65
2021/12/22 04:22:38;;;;;;;20.80;11.30;;;1.40;99.90;;;;;;5054905;28;20169;-68
2021/12/22 04:25:07;;;;;;;20.23;10.40;;;1.30;99.90;;;;;;5054441;28;20598;-64
2021/12/22 04:27:33;;;;;;;19.00;10.73;;;1.20;99.90;;;;;;5054663;28;20615;-65
2021/12/22 04:30:00;;;;;;;23.53;10.13;;;1.20;99.90;;;;;;5054754;28;20156;-64
2021/12/22 04:32:25;;;;;;;23.77;10.00;;;1.20;99.90;;;;;;5054221;28;20176;-64
2021/12/22 04:34:51;;;;;;;19.37;10.30;;;1.10;99.90;;;;;;5053845;28;20670;-64
2021/12/22 04:37:18;;;;;;;24.17;12.53;;;1.10;99.90;;;;;;5054156;28;20250;-64
2021/12/22 04:39:44;;;;;;;24.97;11.97;;;1.10;99.90;;;;;;5053733;28;20176;-64
2021/12/22 04:42:09;;;;;;;20.20;10.13;;;1.10;99.90;;;;;;5052137;28;20176;-65
2021/12/22 04:44:35;;;;;;;17.03;10.27;;;1.10;99.90;;;;;;5053945;28;20168;-66
2021/12/22 04:47:01;;;;;;;20.47;10.13;;;1.10;99.90;;;;;;5053493;28;20599;-64
2021/12/22 04:49:27;;;;;;;20.97;11.63;;;1.10;99.90;;;;;;5053840;28;20553;-64
2021/12/22 04:51:54;;;;;;;20.43;10.33;;;1.10;99.90;;;;;;5053218;28;20167;-65
2021/12/22 04:56:52;;;;;;;26.03;11.47;;;0.90;99.90;;;;;;5053932;28;20219;-65
2021/12/22 04:59:18;;;;;;;19.20;10.43;;;0.80;99.90;;;;;;5053590;28;20164;-63
2021/12/22 05:01:45;;;;;;;21.87;11.07;;;0.90;99.90;;;;;;5053452;28;20592;-64
2021/12/22 05:04:10;;;;;;;18.63;10.47;;;0.90;99.90;;;;;;5054692;28;20481;-64
2021/12/22 05:06:36;;;;;;;17.60;10.17;;;0.80;99.90;;;;;;5056807;28;20180;-65
2021/12/22 05:09:06;;;;;;;19.77;10.93;;;0.80;99.90;;;;;;5058187;28;20172;-65
2021/12/22 05:11:33;;;;;;;20.90;11.03;;;0.80;99.90;;;;;;5056299;28;20227;-64
2021/12/22 05:13:59;;;;;;;17.27;10.30;;;0.80;99.90;;;;;;5054252;28;20160;-64
2021/12/22 05:16:24;;;;;;;20.63;9.77;;;0.80;99.90;;;;;;5053493;28;20511;-65
2021/12/22 05:18:59;;;;;;;24.90;10.53;;;0.80;99.90;;;;;;5053247;28;20168;-65
2021/12/22 05:21:26;;;;;;;20.57;10.17;;;0.70;99.90;;;;;;5057124;28;20160;-64
2021/12/22 05:23:53;;;;;;;19.00;9.87;;;0.70;99.90;;;;;;5057157;28;20156;-64
2021/12/22 05:26:19;;;;;;;21.73;9.77;;;0.60;99.90;;;;;;5057404;28;20173;-64
2021/12/22 05:28:45;;;;;;;17.90;10.10;;;0.60;99.90;;;;;;5056655;28;20175;-64
2021/12/22 05:31:11;;;;;;;17.23;9.70;;;0.50;99.90;;;;;;5056655;28;20568;-65
2021/12/22 05:33:37;;;;;;;17.23;9.40;;;0.40;99.90;;;;;;5057043;28;20220;-65
2021/12/22 05:36:03;;;;;;;19.07;10.23;;;0.40;99.90;;;;;;5033416;28;20553;-64
2021/12/22 05:38:29;;;;;;;19.03;10.23;;;0.30;99.90;;;;;;5036293;28;20558;-64
2021/12/22 05:40:55;;;;;;;18.47;9.47;;;0.30;99.90;;;;;;5036357;28;20213;-65
2021/12/22 05:43:20;;;;;;;19.03;10.13;;;0.40;99.90;;;;;;5036744;28;20169;-63
2021/12/22 05:45:46;;;;;;;16.07;9.73;;;0.30;99.90;;;;;;5036503;28;20517;-66
2021/12/22 05:48:12;;;;;;;18.47;8.67;;;0.30;99.90;;;;;;5036808;28;20158;-64
2021/12/22 05:50:37;;;;;;;17.70;9.13;;;0.30;99.90;;;;;;5036644;28;20601;-66
2021/12/22 05:53:04;;;;;;;20.60;10.63;;;0.30;99.90;;;;;;5036501;28;20581;-64
2021/12/22 05:55:29;;;;;;;20.00;10.27;;;0.30;99.90;;;;;;5036491;28;20197;-63
2021/12/22 05:57:55;;;;;;;17.27;9.90;;;0.30;99.90;;;;;;5035843;28;20183;-64
2021/12/22 06:00:22;;;;;;;16.97;9.43;;;0.30;99.90;;;;;;5036378;28;20182;-65
2021/12/22 06:02:48;;;;;;;20.17;11.67;;;0.30;99.90;;;;;;5035918;28;20153;-64
2021/12/22 06:05:14;;;;;;;17.57;9.80;;;0.20;99.90;;;;;;5036627;28;20671;-66
2021/12/22 06:07:40;;;;;;;20.27;10.10;;;0.20;99.90;;;;;;5035929;28;20183;-66
2021/12/22 06:10:07;;;;;;;18.97;9.73;;;0.20;99.90;;;;;;5036555;28;20684;-64
2021/12/22 06:12:33;;;;;;;15.67;9.83;;;0.20;99.90;;;;;;5035867;28;20187;-65
2021/12/22 06:14:58;;;;;;;16.83;10.00;;;0.10;99.90;;;;;;5036257;28;20630;-65
2021/12/22 06:17:24;;;;;;;25.87;10.63;;;0.10;99.90;;;;;;5035851;28;20169;-65
2021/12/22 06:19:50;;;;;;;21.30;10.87;;;0.10;99.90;;;;;;5037434;28;20169;-65
2021/12/22 06:22:16;;;;;;;22.07;10.60;;;0.10;99.90;;;;;;5037811;28;20172;-65
2021/12/22 06:24:41;;;;;;;21.53;10.53;;;0.00;99.90;;;;;;5037703;28;20169;-66
2021/12/22 06:27:07;;;;;;;23.60;11.43;;;0.00;99.90;;;;;;5035759;28;20180;-65
2021/12/22 06:29:33;;;;;;;23.27;11.87;;;0.00;99.90;;;;;;5035776;28;20161;-65
2021/12/22 06:31:58;;;;;;;20.17;10.60;;;0.00;99.90;;;;;;5034893;28;20189;-64
2021/12/22 06:34:24;;;;;;;21.10;11.33;;;0.00;99.90;;;;;;5035469;28;20227;-66
2021/12/22 06:36:50;;;;;;;23.53;11.07;;;-0.10;99.90;;;;;;5040558;28;20193;-66
2021/12/22 06:39:18;;;;;;;23.43;10.73;;;0.00;99.90;;;;;;5035767;28;20226;-67
2021/12/22 06:41:44;;;;;;;24.97;11.03;;;0.00;99.90;;;;;;5035437;28;20161;-64
2021/12/22 06:44:10;;;;;;;23.97;11.53;;;-0.10;99.90;;;;;;5035923;28;20216;-65
2021/12/22 06:46:35;;;;;;;23.57;11.47;;;-0.20;99.90;;;;;;5035770;28;20585;-67
2021/12/22 06:49:01;;;;;;;23.70;11.60;;;-0.10;99.90;;;;;;5036102;28;20169;-65
2021/12/22 06:51:27;;;;;;;21.53;11.97;;;-0.10;99.90;;;;;;5035604;28;20659;-65
2021/12/22 06:53:52;;;;;;;22.67;12.10;;;-0.20;99.90;;;;;;5036198;28;20535;-65
2021/12/22 06:56:18;;;;;;;21.17;11.47;;;-0.20;99.90;;;;;;5035163;28;20196;-66
2021/12/22 06:58:44;;;;;;;20.33;11.73;;;-0.30;99.90;;;;;;5035662;28;20180;-67
2021/12/22 07:01:16;;;;;;;23.30;12.13;;;-0.30;99.90;;;;;;5035383;28;20594;-65
2021/12/22 07:03:41;;;;;;;24.77;12.30;;;-0.30;99.90;;;;;;5035406;28;20172;-65
2021/12/22 07:06:07;;;;;;;25.77;12.27;;;-0.20;99.90;;;;;;5034898;28;20261;-65
2021/12/22 07:08:33;;;;;;;26.53;13.00;;;-0.30;99.90;;;;;;5033730;28;20183;-65
2021/12/22 07:10:58;;;;;;;25.73;12.07;;;-0.30;99.90;;;;;;5035109;28;20180;-65
2021/12/22 07:13:24;;;;;;;27.13;13.60;;;-0.40;99.90;;;;;;5034996;28;20231;-65
2021/12/22 07:15:51;;;;;;;21.87;12.87;;;-0.30;99.90;;;;;;5034742;28;20203;-66
2021/12/22 07:18:16;;;;;;;25.87;13.37;;;-0.20;99.90;;;;;;5035201;28;20205;-64
2021/12/22 07:20:42;;;;;;;25.20;13.10;;;-0.30;99.90;;;;;;5035002;28;20205;-64
2021/12/22 07:23:08;;;;;;;24.43;13.07;;;-0.40;99.90;;;;;;5034471;28;20642;-66
2021/12/22 07:25:34;;;;;;;31.50;17.63;;;-0.30;99.90;;;;;;5034909;28;20176;-65
2021/12/22 07:28:00;;;;;;;23.80;13.00;;;-0.30;99.90;;;;;;5034823;28;20257;-65
2021/12/22 07:30:26;;;;;;;25.10;13.43;;;-0.30;99.90;;;;;;5034520;28;20150;-67
2021/12/22 07:32:52;;;;;;;26.73;14.77;;;-0.30;99.90;;;;;;5034679;28;20235;-66
2021/12/22 07:35:32;;;;;;;25.00;13.67;;;-0.20;99.90;;;;;;5034543;28;20243;-67
2021/12/22 07:38:15;;;;;;;24.33;12.87;;;-0.20;99.90;;;;;;5034413;28;20178;-65
2021/12/22 07:40:41;;;;;;;26.90;12.13;;;-0.20;99.90;;;;;;5034248;28;20159;-65
2021/12/22 07:43:07;;;;;;;25.30;12.87;;;-0.20;99.90;;;;;;5034054;28;20191;-65
2021/12/22 07:45:32;;;;;;;23.97;11.50;;;-0.10;99.90;;;;;;5049436;28;20189;-66
2021/12/22 07:47:58;;;;;;;22.77;11.83;;;-0.10;99.90;;;;;;5034347;28;20173;-67
2021/12/22 07:50:23;;;;;;;26.67;12.63;;;-0.10;99.90;;;;;;5050075;28;20176;-67
2021/12/22 07:52:49;;;;;;;20.77;12.03;;;-0.10;99.90;;;;;;5034381;28;20188;-66
2021/12/22 07:55:15;;;;;;;22.00;11.90;;;-0.10;99.90;;;;;;5036057;28;20157;-64
2021/12/22 07:57:41;;;;;;;21.27;11.53;;;-0.10;99.90;;;;;;5036734;28;20356;-68
2021/12/22 08:00:07;;;;;;;19.77;10.43;;;-0.10;99.90;;;;;;5037028;28;20172;-65
2021/12/22 08:02:33;;;;;;;21.77;12.17;;;-0.10;99.90;;;;;;5037748;28;20186;-66
2021/12/22 08:04:58;;;;;;;19.63;11.53;;;-0.10;99.90;;;;;;5052469;28;20177;-65
2021/12/22 08:07:24;;;;;;;22.57;10.87;;;-0.10;99.90;;;;;;5034197;28;20165;-64
2021/12/22 08:09:50;;;;;;;23.40;11.57;;;-0.20;99.90;;;;;;5033742;28;20165;-65
2021/12/22 08:12:15;;;;;;;20.50;11.30;;;-0.10;99.90;;;;;;5049702;28;20664;-65
2021/12/22 08:14:41;;;;;;;18.43;10.70;;;-0.30;99.90;;;;;;5034351;28;20613;-65
2021/12/22 08:17:08;;;;;;;30.57;16.13;;;-0.20;99.90;;;;;;5033619;28;20293;-65
2021/12/22 08:19:34;;;;;;;26.03;13.23;;;-0.10;99.90;;;;;;5033764;28;20578;-65
2021/12/22 08:22:00;;;;;;;37.97;21.90;;;-0.10;99.90;;;;;;5034236;28;20253;-65
2021/12/22 08:24:26;;;;;;;27.43;13.10;;;0.00;99.90;;;;;;5033957;28;20169;-65
2021/12/22 08:26:52;;;;;;;17.73;10.97;;;0.00;99.90;;;;;;5033980;28;20340;-66
2021/12/22 08:29:18;;;;;;;22.77;11.33;;;0.00;99.90;;;;;;5033685;28;20169;-65
2021/12/22 08:31:44;;;;;;;21.67;10.97;;;-0.10;99.90;;;;;;5049154;28;20189;-65
2021/12/22 08:34:11;;;;;;;15.87;9.77;;;0.00;99.90;;;;;;5034445;28;20230;-65
2021/12/22 08:39:22;;;;;;;17.07;9.33;;;0.00;99.90;;;;;;5033870;28;20243;-65
2021/12/22 08:41:49;;;;;;;21.00;10.73;;;0.00;99.90;;;;;;5035026;28;20180;-63
2021/12/22 08:44:18;;;;;;;19.33;10.70;;;0.00;99.90;;;;;;5037456;28;20242;-65
2021/12/22 08:46:48;;;;;;;24.70;10.40;;;0.10;99.90;;;;;;5037020;28;20167;-66
2021/12/22 08:49:14;;;;;;;24.60;10.77;;;0.10;99.90;;;;;;5035069;28;20507;-65
2021/12/22 08:51:40;;;;;;;15.07;8.77;;;0.10;99.90;;;;;;5033910;28;20165;-66
2021/12/22 08:54:06;;;;;;;14.83;8.40;;;0.10;99.90;;;;;;5033178;28;20188;-70
2021/12/22 08:56:32;;;;;;;16.73;8.90;;;0.20;99.90;;;;;;5033796;28;20601;-68
2021/12/22 08:58:59;;;;;;;15.60;8.87;;;0.30;99.90;;;;;;5032787;28;20172;-67
2021/12/22 09:01:26;;;;;;;17.73;9.60;;;0.20;99.90;;;;;;5032238;28;20551;-66
2021/12/22 09:03:52;;;;;;;18.77;9.63;;;0.20;99.90;;;;;;5033113;28;20551;-68
2021/12/22 09:06:18;;;;;;;17.30;8.77;;;0.10;99.90;;;;;;5031831;28;20210;-68
2021/12/22 09:08:44;;;;;;;18.47;9.73;;;0.20;99.90;;;;;;5032998;28;20165;-66
2021/12/22 09:11:11;;;;;;;19.70;9.80;;;0.10;99.90;;;;;;5032978;28;20184;-69
2021/12/22 09:13:39;;;;;;;14.43;8.63;;;0.20;99.90;;;;;;5031824;28;20759;-67
2021/12/22 09:16:05;;;;;;;15.87;8.80;;;0.20;99.90;;;;;;5032904;28;20552;-68
2021/12/22 09:18:31;;;;;;;15.80;8.97;;;0.20;99.90;;;;;;5033520;28;20513;-68
2021/12/22 09:20:57;;;;;;;18.77;8.80;;;0.30;99.90;;;;;;5033427;28;20253;-69
2021/12/22 09:23:22;;;;;;;16.27;8.83;;;0.20;99.90;;;;;;5033678;28;20597;-68
2021/12/22 09:25:48;;;;;;;17.70;9.30;;;0.30;99.90;;;;;;5035440;28;20243;-70
2021/12/22 09:28:15;;;;;;;13.23;8.27;;;0.40;99.90;;;;;;5034155;28;20179;-70
2021/12/22 09:30:43;;;;;;;15.17;8.93;;;0.40;99.90;;;;;;5033174;28;20158;-68
2021/12/22 09:33:14;;;;;;;13.77;8.40;;;0.40;99.90;;;;;;5032946;28;20187;-69
2021/12/22 09:35:41;;;;;;;19.03;9.23;;;0.30;99.90;;;;;;5032501;28;20233;-69
2021/12/22 09:38:08;;;;;;;12.70;7.63;;;0.40;99.90;;;;;;5032810;28;20168;-68
2021/12/22 09:40:34;;;;;;;21.37;10.90;;;0.40;99.90;;;;;;5032386;28;20679;-67
2021/12/22 09:43:00;;;;;;;45.97;16.83;;;0.40;99.90;;;;;;5032538;28;20169;-67
2021/12/22 09:45:28;;;;;;;16.70;9.57;;;0.40;99.90;;;;;;5032666;28;20161;-68
2021/12/22 09:48:17;;;;;;;21.70;10.10;;;0.70;99.90;;;;;;5032845;28;20159;-69
2021/12/22 09:50:54;;;;;;;35.03;13.73;;;0.60;99.90;;;;;;5032865;28;20161;-68
2021/12/22 09:53:23;;;;;;;21.97;10.30;;;0.50;99.90;;;;;;5032451;28;20243;-71
2021/12/22 09:55:50;;;;;;;45.43;15.40;;;0.60;99.90;;;;;;5032267;28;20254;-67
2021/12/22 09:58:16;;;;;;;29.40;13.00;;;0.70;99.90;;;;;;5032903;28;20496;-67
2021/12/22 10:00:44;;;;;;;28.67;12.20;;;0.70;99.90;;;;;;5047623;28;20573;-69
2021/12/22 10:03:11;;;;;;;16.97;9.50;;;0.70;99.90;;;;;;5032349;28;20161;-68
2021/12/22 10:05:38;;;;;;;17.23;9.40;;;0.70;99.90;;;;;;5033332;28;20252;-67
2021/12/22 10:08:09;;;;;;;19.50;9.63;;;0.70;99.90;;;;;;5036396;28;20230;-68
2021/12/22 10:10:37;;;;;;;17.10;8.53;;;0.80;99.90;;;;;;5036374;28;20184;-70
2021/12/22 10:13:12;;;;;;;25.20;10.80;;;1.10;99.90;;;;;;5036260;28;20241;-70
2021/12/22 10:15:39;;;;;;;19.80;9.70;;;1.00;99.90;;;;;;5035958;28;20368;-68
2021/12/22 10:18:17;;;;;;;12.83;8.20;;;1.00;99.90;;;;;;5035681;28;20165;-69
2021/12/22 10:20:46;;;;;;;20.07;11.83;;;1.00;99.90;;;;;;5036407;28;20157;-70
2021/12/22 10:23:29;;;;;;;17.13;9.57;;;1.10;99.90;;;;;;5051724;28;20173;-70
2021/12/22 10:25:55;;;;;;;15.80;8.20;;;1.10;99.90;;;;;;5036092;28;20172;-68
2021/12/22 10:28:21;;;;;;;14.83;8.30;;;1.20;99.90;;;;;;5036052;28;20172;-69
2021/12/22 10:30:50;;;;;;;15.93;8.63;;;1.20;99.90;;;;;;5036024;28;20549;-68
2021/12/22 10:33:27;;;;;;;17.17;8.20;;;1.30;99.90;;;;;;5034739;28;20690;-69
2021/12/22 10:36:09;;;;;;;15.70;7.73;;;1.30;99.90;;;;;;5036277;28;20200;-69
2021/12/22 10:38:34;;;;;;;14.17;8.20;;;1.30;99.90;;;;;;5038964;28;20161;-69
2021/12/22 10:41:10;;;;;;;12.10;7.73;;;1.30;99.90;;;;;;5040632;28;20175;-69
2021/12/22 10:43:46;;;;;;;20.47;9.50;;;1.30;99.90;;;;;;5036930;28;20161;-69
2021/12/22 10:46:16;;;;;;;19.40;8.57;;;1.40;99.90;;;;;;5035864;28;20167;-69
2021/12/22 10:51:29;;;;;;;14.77;7.83;;;1.50;99.90;;;;;;5035584;28;20168;-69
2021/12/22 10:53:56;;;;;;;14.67;7.40;;;1.60;99.90;;;;;;5040453;28;20233;-68
2021/12/22 10:56:32;;;;;;;15.20;7.50;;;1.70;99.90;;;;;;5035594;28;20279;-68
2021/12/22 10:59:14;;;;;;;11.13;6.33;;;1.60;99.90;;;;;;5035163;28;20191;-69
2021/12/22 11:01:53;;;;;;;9.73;6.70;;;1.80;99.90;;;;;;5035233;28;20165;-69
2021/12/22 11:04:25;;;;;;;11.50;7.63;;;1.80;99.90;;;;;;5035341;28;20199;-68
2021/12/22 11:06:53;;;;;;;15.67;7.87;;;1.90;99.90;;;;;;5036518;28;20200;-69
2021/12/22 11:09:20;;;;;;;10.93;6.67;;;1.90;99.90;;;;;;5039471;28;20566;-69
2021/12/22 11:11:48;;;;;;;12.80;7.57;;;1.90;99.90;;;;;;5038312;28;20181;-68
2021/12/22 11:14:22;;;;;;;13.43;7.63;;;2.00;99.90;;;;;;5038158;28;20503;-68
2021/12/22 11:17:09;;;;;;;13.57;7.90;;;2.00;99.90;;;;;;5034611;28;20193;-69
2021/12/22 11:19:56;;;;;;;14.97;7.53;;;2.00;99.90;;;;;;5034755;28;20160;-68
2021/12/22 11:22:46;;;;;;;12.60;7.67;;;2.10;99.90;;;;;;5035099;28;20161;-68
2021/12/22 11:25:12;;;;;;;9.83;7.20;;;2.10;99.90;;;;;;5034889;28;20179;-68
2021/12/22 11:27:39;;;;;;;10.53;6.53;;;2.10;99.90;;;;;;5033943;28;20684;-67
2021/12/22 11:30:06;;;;;;;13.17;7.50;;;2.10;99.90;;;;;;5034876;28;20227;-67
2021/12/22 11:32:33;;;;;;;10.23;5.07;;;2.10;99.90;;;;;;5034507;28;20179;-66
2021/12/22 11:35:03;;;;;;;12.57;6.73;;;2.20;99.90;;;;;;5035315;28;20228;-66
2021/12/22 11:37:28;;;;;;;12.70;8.20;;;2.20;99.90;;;;;;5034966;28;20662;-66
2021/12/22 11:39:57;;;;;;;11.00;7.50;;;2.30;99.90;;;;;;5034777;28;20166;-65
2021/12/22 11:42:26;;;;;;;10.97;7.13;;;2.40;99.90;;;;;;5034764;28;20175;-66
2021/12/22 11:44:57;;;;;;;9.23;6.20;;;2.30;99.90;;;;;;5034203;28;20650;-66
2021/12/22 11:47:23;;;;;;;11.60;6.93;;;2.30;99.90;;;;;;5034496;28;20250;-66
2021/12/22 11:49:58;;;;;;;11.93;6.97;;;2.40;99.90;;;;;;5034388;28;20158;-67
2021/12/22 11:52:30;;;;;;;15.33;5.40;;;2.50;99.90;;;;;;5034307;28;20239;-68
2021/12/22 11:55:07;;;;;;;8.90;6.00;;;2.50;99.90;;;;;;5034642;28;20169;-66
2021/12/22 11:57:32;;;;;;;10.97;6.83;;;2.50;99.90;;;;;;5034237;28;20558;-67
2021/12/22 12:00:19;;;;;;;11.17;5.83;;;2.60;99.90;;;;;;5034436;28;20196;-68
2021/12/22 12:02:45;;;;;;;12.63;5.93;;;2.60;99.90;;;;;;5034175;28;20243;-67
2021/12/22 12:05:15;;;;;;;8.23;4.87;;;2.70;99.90;;;;;;5034672;28;20204;-68
2021/12/22 12:07:42;;;;;;;10.77;5.10;;;2.70;99.90;;;;;;5033312;28;20600;-67
2021/12/22 12:10:38;;;;;;;16.73;7.60;;;2.80;99.90;;;;;;5034599;28;20169;-67
2021/12/22 12:13:23;;;;;;;10.30;6.77;;;2.70;99.90;;;;;;5034266;28;20215;-67
2021/12/22 12:22:09;;;;;;;9.87;6.67;;;2.80;99.90;;;;;;5034238;28;20184;-66
2021/12/22 12:24:40;;;;;;;8.80;5.40;;;2.90;99.90;;;;;;5033458;28;20336;-65
2021/12/22 12:27:30;;;;;;;12.50;7.00;;;2.90;99.90;;;;;;5033827;28;20196;-66
2021/12/22 12:29:59;;;;;;;11.70;7.10;;;2.90;99.90;;;;;;5033258;28;20260;-66
2021/12/22 12:32:39;;;;;;;10.33;6.30;;;2.90;99.90;;;;;;5033841;28;20604;-67
2021/12/22 12:35:26;;;;;;;11.43;6.63;;;2.90;99.90;;;;;;5033806;28;20239;-65
2021/12/22 12:38:15;;;;;;;12.23;7.33;;;2.90;99.90;;;;;;5033596;28;20161;-67
2021/12/22 12:41:06;;;;;;;11.10;6.43;;;3.00;99.90;;;;;;5033767;28;20176;-65
2021/12/22 12:43:54;;;;;;;9.87;6.53;;;3.10;99.90;;;;;;5033640;28;20244;-66
2021/12/22 12:46:34;;;;;;;13.47;7.77;;;3.10;99.90;;;;;;5034567;28;20164;-67
2021/12/22 12:49:03;;;;;;;11.63;5.63;;;3.10;99.90;;;;;;5036512;28;20176;-66
2021/12/22 12:51:37;;;;;;;10.20;7.63;;;3.10;99.90;;;;;;5034556;28;20188;-68
2021/12/22 12:54:06;;;;;;;14.27;7.17;;;3.10;99.90;;;;;;5036159;28;20624;-69
2021/12/22 12:56:33;;;;;;;10.27;5.70;;;3.10;99.90;;;;;;5035476;28;20550;-67
2021/12/22 12:59:17;;;;;;;10.57;6.20;;;3.10;99.90;;;;;;5033362;28;20559;-67
2021/12/22 13:01:46;;;;;;;9.40;6.17;;;3.30;99.90;;;;;;5033844;28;20183;-66
2021/12/22 13:04:34;;;;;;;8.60;6.43;;;3.20;99.90;;;;;;5033105;28;20165;-66
2021/12/22 13:06:59;;;;;;;9.10;5.87;;;3.30;99.90;;;;;;5033765;28;20166;-69
2021/12/22 13:09:37;;;;;;;10.77;6.23;;;3.40;99.90;;;;;;5032898;28;20652;-67
2021/12/22 13:12:14;;;;;;;7.47;4.83;;;3.30;99.90;;;;;;5032799;28;20240;-68
2021/12/22 13:17:41;;;;;;;12.30;6.80;;;3.40;99.90;;;;;;5032648;28;20258;-69